createdAt,value
2023-03-28T00:00:06.299Z,2.28
2023-03-28T00:02:32.647Z,1.65
2023-03-28T00:05:00.082Z,2.10
2023-03-28T00:07:29.406Z,1.63
2023-03-28T00:09:57.462Z,1.55
2023-03-28T00:12:24.594Z,1.50
2023-03-28T00:14:50.899Z,1.50
2023-03-28T00:17:17.961Z,1.10
2023-03-28T00:19:47.003Z,1.13
2023-03-28T00:22:13.595Z,1.40
2023-03-28T00:24:40.027Z,1.08
2023-03-28T00:27:07.219Z,1.08
2023-03-28T00:29:33.813Z,1.25
2023-03-28T00:32:00.386Z,1.52
2023-03-28T00:34:27.061Z,0.82
2023-03-28T00:36:55.087Z,1.20
2023-03-28T00:39:21.494Z,1.38
2023-03-28T00:41:48.052Z,1.30
2023-03-28T00:44:33.141Z,1.00
2023-03-28T00:46:59.499Z,1.30
2023-03-28T00:49:26.145Z,1.50
2023-03-28T00:51:56.914Z,1.60
2023-03-28T00:54:24.475Z,1.27
2023-03-28T00:56:53.324Z,1.30
2023-03-28T00:59:21.087Z,1.27
2023-03-28T01:01:47.534Z,0.90
2023-03-28T01:04:20.647Z,1.95
2023-03-28T01:06:49.931Z,1.08
2023-03-28T01:09:17.028Z,1.20
2023-03-28T01:11:43.948Z,1.45
2023-03-28T01:14:13.150Z,1.75
2023-03-28T01:16:41.567Z,2.30
2023-03-28T01:19:12.466Z,1.60
2023-03-28T01:21:38.825Z,1.70
2023-03-28T01:24:23.832Z,1.60
2023-03-28T01:26:55.859Z,1.17
2023-03-28T01:31:57.335Z,1.10
2023-03-28T01:34:47.027Z,1.20
2023-03-28T01:37:23.679Z,1.50
2023-03-28T01:40:11.370Z,1.52
2023-03-28T01:42:49.811Z,1.20
2023-03-28T01:45:34.729Z,1.20
2023-03-28T01:48:06.859Z,0.90
2023-03-28T01:50:48.230Z,1.00
2023-03-28T01:53:14.497Z,1.50
2023-03-28T01:55:41.826Z,2.00
2023-03-28T01:58:18.283Z,1.67
2023-03-28T02:00:46.017Z,2.00
2023-03-28T02:03:18.634Z,1.80
2023-03-28T02:05:46.129Z,1.52
2023-03-28T02:08:13.602Z,1.58
2023-03-28T02:10:41.683Z,1.25
2023-03-28T02:13:21.599Z,1.70
2023-03-28T02:15:54.236Z,1.10
2023-03-28T02:18:24.182Z,0.90
2023-03-28T02:20:54.025Z,0.90
2023-03-28T02:23:22.644Z,1.02
2023-03-28T02:25:49.146Z,0.70
2023-03-28T02:28:16.199Z,0.90
2023-03-28T02:30:42.896Z,0.73
2023-03-28T02:33:30.217Z,1.02
2023-03-28T02:36:05.817Z,1.52
2023-03-28T02:38:42.346Z,1.20
2023-03-28T02:41:17.904Z,1.35
2023-03-28T02:43:50.356Z,1.20
2023-03-28T02:46:17.642Z,0.80
2023-03-28T02:48:57.767Z,0.63
2023-03-28T02:51:42.657Z,0.45
2023-03-28T02:54:09.198Z,0.70
2023-03-28T02:56:56.483Z,1.17
2023-03-28T02:59:25.785Z,1.15
2023-03-28T03:01:52.449Z,1.38
2023-03-28T03:04:19.009Z,1.13
2023-03-28T03:06:45.725Z,1.23
2023-03-28T03:09:13.080Z,1.83
2023-03-28T03:11:40.089Z,1.30
2023-03-28T03:14:06.389Z,1.00
2023-03-28T03:16:32.915Z,1.10
2023-03-28T03:18:59.273Z,1.40
2023-03-28T03:21:26.208Z,2.10
2023-03-28T03:23:52.621Z,1.65
2023-03-28T03:26:19.004Z,1.35
2023-03-28T03:28:45.349Z,1.65
2023-03-28T03:31:11.711Z,1.90
2023-03-28T03:33:38.080Z,1.70
2023-03-28T03:36:05.273Z,1.90
2023-03-28T03:38:31.693Z,3.15
2023-03-28T03:40:58.030Z,2.00
2023-03-28T03:43:24.481Z,2.10
2023-03-28T03:45:50.898Z,2.20
2023-03-28T03:48:17.344Z,2.20
2023-03-28T03:50:43.830Z,2.17
2023-03-28T03:53:10.366Z,2.80
2023-03-28T03:55:38.998Z,2.15
2023-03-28T03:58:05.335Z,1.90
2023-03-28T04:00:31.707Z,2.50
2023-03-28T04:02:58.033Z,1.45
2023-03-28T04:05:24.738Z,1.92
2023-03-28T04:07:51.078Z,1.98
2023-03-28T04:10:17.401Z,1.42
2023-03-28T04:12:43.732Z,1.50
2023-03-28T04:15:10.361Z,1.48
2023-03-28T04:17:37.846Z,1.40
2023-03-28T04:20:22.418Z,1.42
2023-03-28T04:22:48.776Z,1.50
2023-03-28T04:25:17.669Z,2.10
2023-03-28T04:27:48.867Z,1.10
2023-03-28T04:30:17.811Z,1.00
2023-03-28T04:32:44.603Z,1.52
2023-03-28T04:35:12.348Z,1.30
2023-03-28T04:37:38.717Z,1.20
2023-03-28T04:40:10.373Z,0.95
2023-03-28T04:42:37.464Z,1.10
2023-03-28T04:45:04.958Z,1.08
2023-03-28T04:47:31.387Z,0.73
2023-03-28T04:49:58.382Z,0.75
2023-03-28T04:52:24.842Z,0.60
2023-03-28T04:54:51.566Z,0.68
2023-03-28T04:57:18.051Z,0.60
2023-03-28T04:59:44.412Z,1.00
2023-03-28T05:02:10.886Z,0.75
2023-03-28T05:04:37.416Z,0.95
2023-03-28T05:07:04.600Z,1.88
2023-03-28T05:09:31.196Z,0.98
2023-03-28T05:11:57.499Z,0.98
2023-03-28T05:14:23.852Z,0.93
2023-03-28T05:16:50.683Z,0.80
2023-03-28T05:19:18.101Z,0.60
2023-03-28T05:21:44.424Z,0.82
2023-03-28T05:24:10.866Z,1.02
2023-03-28T05:26:37.624Z,1.55
2023-03-28T05:29:03.974Z,0.90
2023-03-28T05:31:30.877Z,1.25
2023-03-28T05:33:57.319Z,0.98
2023-03-28T05:36:23.773Z,0.70
2023-03-28T05:38:50.484Z,0.82
2023-03-28T05:41:16.842Z,1.17
2023-03-28T05:43:43.229Z,1.33
2023-03-28T05:46:09.590Z,1.20
2023-03-28T05:48:36.895Z,0.93
2023-03-28T05:51:03.479Z,0.90
2023-03-28T05:53:29.815Z,1.15
2023-03-28T05:55:56.141Z,0.95
2023-03-28T05:58:22.432Z,0.80
2023-03-28T06:00:48.846Z,0.82
2023-03-28T06:03:16.625Z,0.63
2023-03-28T06:05:44.242Z,0.50
2023-03-28T06:08:10.831Z,0.52
2023-03-28T06:10:37.534Z,0.50
2023-03-28T06:13:03.898Z,0.68
2023-03-28T06:15:30.262Z,0.50
2023-03-28T06:17:58.193Z,0.50
2023-03-28T06:20:24.544Z,0.80
2023-03-28T06:22:50.966Z,0.60
2023-03-28T06:25:17.294Z,0.60
2023-03-28T06:27:43.619Z,0.40
2023-03-28T06:30:10.470Z,0.40
2023-03-28T06:32:36.901Z,0.60
2023-03-28T06:35:03.279Z,0.70
2023-03-28T06:37:29.612Z,1.13
2023-03-28T06:39:56.148Z,0.90
2023-03-28T06:42:22.435Z,0.90
2023-03-28T06:44:48.800Z,1.00
2023-03-28T06:47:15.676Z,0.80
2023-03-28T06:49:42.046Z,0.90
2023-03-28T06:52:08.473Z,1.58
2023-03-28T06:54:34.829Z,1.98
2023-03-28T06:57:01.168Z,2.15
2023-03-28T06:59:27.524Z,1.40
2023-03-28T07:01:54.482Z,1.23
2023-03-28T07:04:20.852Z,1.40
2023-03-28T07:06:47.711Z,1.00
2023-03-28T07:09:14.040Z,0.90
2023-03-28T07:11:40.694Z,1.23
2023-03-28T07:14:07.046Z,1.38
2023-03-28T07:16:33.403Z,1.50
2023-03-28T07:18:59.732Z,1.50
2023-03-28T07:21:26.058Z,2.35
2023-03-28T07:23:52.391Z,1.73
2023-03-28T07:26:18.697Z,1.90
2023-03-28T07:28:45.208Z,1.88
2023-03-28T07:31:12.304Z,2.00
2023-03-28T07:33:39.231Z,2.10
2023-03-28T07:36:13.442Z,1.80
2023-03-28T07:38:39.822Z,1.95
2023-03-28T07:41:06.373Z,1.73
2023-03-28T07:43:32.877Z,1.98
2023-03-28T07:46:03.234Z,1.60
2023-03-28T07:48:30.565Z,1.65
2023-03-28T07:50:57.079Z,1.55
2023-03-28T07:53:23.448Z,1.80
2023-03-28T07:55:54.991Z,1.73
2023-03-28T07:58:21.765Z,1.10
2023-03-28T08:00:48.141Z,1.60
2023-03-28T08:03:16.024Z,0.90
2023-03-28T08:05:43.514Z,0.88
2023-03-28T08:08:09.837Z,1.73
2023-03-28T08:10:36.912Z,0.75
2023-03-28T08:13:04.000Z,0.80
2023-03-28T08:15:30.457Z,0.90
2023-03-28T08:17:56.824Z,0.75
2023-03-28T08:20:23.417Z,0.68
2023-03-28T08:22:49.758Z,0.90
2023-03-28T08:25:16.065Z,1.88
2023-03-28T08:27:42.437Z,1.48
2023-03-28T08:30:08.852Z,1.83
2023-03-28T08:32:35.173Z,2.20
2023-03-28T08:35:03.171Z,1.45
2023-03-28T08:37:29.562Z,1.35
2023-03-28T08:39:55.926Z,1.25
2023-03-28T08:42:30.631Z,0.70
2023-03-28T08:44:57.098Z,0.60
2023-03-28T08:47:31.449Z,1.70
2023-03-28T08:50:04.060Z,1.17
2023-03-28T08:52:30.518Z,0.73
2023-03-28T08:55:02.453Z,0.50
2023-03-28T08:57:30.088Z,0.45
2023-03-28T09:00:09.916Z,0.50
2023-03-28T09:02:36.392Z,0.55
2023-03-28T09:07:35.083Z,0.40
2023-03-28T09:10:01.432Z,0.30
2023-03-28T09:12:27.777Z,0.22
2023-03-28T09:15:13.775Z,0.22
2023-03-28T09:17:49.390Z,0.30
2023-03-28T09:20:24.880Z,0.30
2023-03-28T09:22:52.882Z,0.40
2023-03-28T09:25:37.625Z,0.30
2023-03-28T09:28:10.167Z,0.20
2023-03-28T09:30:42.824Z,0.40
2023-03-28T09:33:13.259Z,0.73
2023-03-28T09:35:40.626Z,0.40
2023-03-28T09:38:12.780Z,0.30
2023-03-28T09:40:42.633Z,1.60
2023-03-28T09:43:20.894Z,0.80
2023-03-28T09:45:54.150Z,0.73
2023-03-28T09:48:23.876Z,0.68
2023-03-28T09:50:50.759Z,0.93
2023-03-28T09:53:20.489Z,0.60
2023-03-28T09:55:57.999Z,0.47
2023-03-28T09:58:46.698Z,1.00
2023-03-28T10:01:33.416Z,1.10
2023-03-28T10:04:00.781Z,0.70
2023-03-28T10:06:28.889Z,0.90
2023-03-28T10:09:13.979Z,0.82
2023-03-28T10:12:00.813Z,0.63
2023-03-28T10:14:37.604Z,0.63
2023-03-28T10:17:12.061Z,0.50
2023-03-28T10:19:41.570Z,0.80
2023-03-28T10:22:12.947Z,0.80
2023-03-28T10:24:40.247Z,0.85
2023-03-28T10:27:17.962Z,0.90
2023-03-28T10:29:46.230Z,1.10
2023-03-28T10:32:13.870Z,1.00
2023-03-28T10:34:40.728Z,1.58
2023-03-28T10:37:26.129Z,1.10
2023-03-28T10:40:05.555Z,1.05
2023-03-28T10:42:45.198Z,1.20
2023-03-28T10:45:23.738Z,0.80
2023-03-28T10:47:50.893Z,0.80
2023-03-28T10:50:28.230Z,0.80
2023-03-28T10:53:04.292Z,0.60
2023-03-28T10:55:50.557Z,0.70
2023-03-28T10:58:29.521Z,0.60
2023-03-28T11:00:56.127Z,1.20
2023-03-28T11:03:25.778Z,0.90
2023-03-28T11:06:09.519Z,0.60
2023-03-28T11:08:38.855Z,0.60
2023-03-28T11:11:13.483Z,0.60
2023-03-28T11:13:39.960Z,0.70
2023-03-28T11:16:06.602Z,0.80
2023-03-28T11:18:32.955Z,0.60
2023-03-28T11:21:25.723Z,0.60
2023-03-28T11:24:10.955Z,1.10
2023-03-28T11:27:15.002Z,0.80
2023-03-28T11:29:49.226Z,0.98
2023-03-28T11:32:21.733Z,1.08
2023-03-28T11:35:01.619Z,1.00
2023-03-28T11:37:34.234Z,0.93
2023-03-28T11:40:12.177Z,0.90
2023-03-28T11:42:45.351Z,0.57
2023-03-28T11:45:12.111Z,0.70
2023-03-28T11:47:41.508Z,1.05
2023-03-28T11:50:14.974Z,1.10
2023-03-28T11:52:45.639Z,0.93
2023-03-28T11:55:23.605Z,0.90
2023-03-28T11:58:01.677Z,0.60
2023-03-28T12:00:43.096Z,0.80
2023-03-28T12:03:12.439Z,0.90
2023-03-28T12:05:45.703Z,1.08
2023-03-28T12:08:41.177Z,1.10
2023-03-28T12:11:11.691Z,2.10
2023-03-28T12:13:45.517Z,0.82
2023-03-28T12:16:15.917Z,1.02
2023-03-28T12:18:50.467Z,0.82
2023-03-28T12:21:19.684Z,0.95
2023-03-28T12:24:06.241Z,1.20
2023-03-28T12:26:38.691Z,0.65
2023-03-28T12:29:17.372Z,1.15
2023-03-28T12:31:43.853Z,0.90
2023-03-28T12:34:28.537Z,0.90
2023-03-28T12:37:04.506Z,0.95
2023-03-28T12:39:34.862Z,1.33
2023-03-28T12:42:06.555Z,1.00
2023-03-28T12:44:39.022Z,1.45
2023-03-28T12:47:17.265Z,0.82
2023-03-28T12:49:46.714Z,0.80
2023-03-28T12:52:16.042Z,1.00
2023-03-28T12:54:53.708Z,1.15
2023-03-28T12:57:40.424Z,0.75
2023-03-28T13:00:07.224Z,0.60
2023-03-28T13:02:47.223Z,0.80
2023-03-28T13:05:39.737Z,0.80
2023-03-28T13:08:15.038Z,0.90
2023-03-28T13:10:44.918Z,0.98
2023-03-28T13:13:20.554Z,1.00
2023-03-28T13:15:55.227Z,1.00
2023-03-28T13:18:21.783Z,1.00
2023-03-28T13:20:51.117Z,0.95
2023-03-28T13:23:18.230Z,1.00
2023-03-28T13:25:53.947Z,1.05
2023-03-28T13:28:34.148Z,1.10
2023-03-28T13:31:13.270Z,0.90
2023-03-28T13:33:47.204Z,0.98
2023-03-28T13:36:17.891Z,0.90
2023-03-28T13:38:45.942Z,0.80
2023-03-28T13:41:28.967Z,0.88
2023-03-28T13:43:57.397Z,1.35
2023-03-28T13:46:26.615Z,1.00
2023-03-28T13:48:55.975Z,1.20
2023-03-28T13:51:23.720Z,1.15
2023-03-28T13:53:50.343Z,1.02
2023-03-28T13:56:24.398Z,0.98
2023-03-28T13:58:52.148Z,1.30
2023-03-28T14:01:27.219Z,0.80
2023-03-28T14:03:54.959Z,0.82
2023-03-28T14:06:22.898Z,1.20
2023-03-28T14:08:54.022Z,1.20
2023-03-28T14:11:31.634Z,1.27
2023-03-28T14:14:01.846Z,1.40
2023-03-28T14:16:28.299Z,1.20
2023-03-28T14:18:54.739Z,1.13
2023-03-28T14:21:23.993Z,1.33
2023-03-28T14:24:00.548Z,0.90
2023-03-28T14:26:28.281Z,1.00
2023-03-28T14:28:58.111Z,0.82
2023-03-28T14:31:28.785Z,1.15
2023-03-28T14:33:58.511Z,0.80
2023-03-28T14:36:25.399Z,0.90
2023-03-28T14:38:52.382Z,0.90
2023-03-28T14:41:21.455Z,1.58
2023-03-28T14:43:52.170Z,1.35
2023-03-28T14:46:21.454Z,1.00
2023-03-28T14:48:48.049Z,1.00
2023-03-28T14:51:14.386Z,1.05
2023-03-28T14:53:42.231Z,0.75
2023-03-28T14:56:11.141Z,0.85
2023-03-28T14:58:39.399Z,0.90
2023-03-28T15:01:06.198Z,1.17
2023-03-28T15:03:34.456Z,1.30
2023-03-28T15:06:01.436Z,0.93
2023-03-28T15:08:30.964Z,0.90
2023-03-28T15:11:03.317Z,1.00
2023-03-28T15:13:32.667Z,0.90
2023-03-28T15:16:01.930Z,1.40
2023-03-28T15:18:30.011Z,1.10
2023-03-28T15:20:58.803Z,0.95
2023-03-28T15:23:32.573Z,1.38
2023-03-28T15:26:05.255Z,0.90
2023-03-28T15:28:31.978Z,1.00
2023-03-28T15:31:00.702Z,1.27
2023-03-28T15:33:27.381Z,1.30
2023-03-28T15:36:07.494Z,1.05
2023-03-28T15:38:37.829Z,1.42
2023-03-28T15:41:17.844Z,0.90
2023-03-28T15:43:53.572Z,1.42
2023-03-28T15:46:21.456Z,1.08
2023-03-28T15:48:48.369Z,1.55
2023-03-28T15:51:16.006Z,1.25
2023-03-28T15:53:43.116Z,1.02
2023-03-28T15:56:17.109Z,1.05
2023-03-28T15:58:45.122Z,1.20
2023-03-28T16:01:20.691Z,1.40
2023-03-28T16:03:47.162Z,1.20
2023-03-28T16:06:23.123Z,1.40
2023-03-28T16:08:57.693Z,1.10
2023-03-28T16:11:26.815Z,1.10
2023-03-28T16:13:53.313Z,1.48
2023-03-28T16:16:24.638Z,1.52
2023-03-28T16:18:51.157Z,1.00
2023-03-28T16:21:19.073Z,1.20
2023-03-28T16:23:45.853Z,1.50
2023-03-28T16:26:12.722Z,1.20
2023-03-28T16:28:39.095Z,1.33
2023-03-28T16:31:05.903Z,1.20
2023-03-28T16:33:32.378Z,1.60
2023-03-28T16:35:58.865Z,1.38
2023-03-28T16:38:25.430Z,1.30
2023-03-28T16:40:51.873Z,1.63
2023-03-28T16:43:18.447Z,1.30
2023-03-28T16:45:48.862Z,1.25
2023-03-28T16:48:15.596Z,1.30
2023-03-28T16:50:48.195Z,1.20
2023-03-28T16:53:14.655Z,1.33
2023-03-28T16:55:41.132Z,1.95
2023-03-28T16:58:07.500Z,2.05
2023-03-28T17:00:34.481Z,1.90
2023-03-28T17:03:01.264Z,1.42
2023-03-28T17:05:27.666Z,1.30
2023-03-28T17:07:54.024Z,2.30
2023-03-28T17:10:20.680Z,2.60
2023-03-28T17:12:47.546Z,2.88
2023-03-28T17:15:13.853Z,2.33
2023-03-28T17:17:40.602Z,2.00
2023-03-28T17:20:07.346Z,1.70
2023-03-28T17:22:33.682Z,1.50
2023-03-28T17:25:01.936Z,1.30
2023-03-28T17:27:28.409Z,1.60
2023-03-28T17:29:54.800Z,1.10
2023-03-28T17:32:22.087Z,1.48
2023-03-28T17:34:48.619Z,1.40
2023-03-28T17:37:14.912Z,1.50
2023-03-28T17:39:41.431Z,1.10
2023-03-28T17:42:09.136Z,1.20
2023-03-28T17:44:35.557Z,1.58
2023-03-28T17:47:02.353Z,1.42
2023-03-28T17:49:28.813Z,2.50
2023-03-28T17:51:57.039Z,1.38
2023-03-28T17:54:25.285Z,1.02
2023-03-28T17:56:52.510Z,1.30
2023-03-28T17:59:19.116Z,1.08
2023-03-28T18:01:45.686Z,1.10
2023-03-28T18:04:12.696Z,1.30
2023-03-28T18:06:40.535Z,1.30
2023-03-28T18:09:06.950Z,1.50
2023-03-28T18:11:34.199Z,1.30
2023-03-28T18:14:00.783Z,1.40
2023-03-28T18:16:27.820Z,1.48
2023-03-28T18:18:54.534Z,1.00
2023-03-28T18:21:21.521Z,1.00
2023-03-28T18:23:48.289Z,1.00
2023-03-28T18:26:14.958Z,1.23
2023-03-28T18:28:41.536Z,1.40
2023-03-28T18:31:09.324Z,0.90
2023-03-28T18:33:36.108Z,1.08
2023-03-28T18:36:02.629Z,1.10
2023-03-28T18:38:29.186Z,0.70
2023-03-28T18:40:56.187Z,1.10
2023-03-28T18:43:22.584Z,0.90
2023-03-28T18:45:53.987Z,1.55
2023-03-28T18:48:21.693Z,1.30
2023-03-28T18:50:48.238Z,1.13
2023-03-28T18:53:14.576Z,1.20
2023-03-28T18:55:41.793Z,1.20
2023-03-28T18:58:10.391Z,1.17
2023-03-28T19:00:38.543Z,1.02
2023-03-28T19:03:05.025Z,0.90
2023-03-28T19:05:33.455Z,1.50
2023-03-28T19:07:59.931Z,1.30
2023-03-28T19:10:27.023Z,1.65
2023-03-28T19:12:54.357Z,1.52
2023-03-28T19:15:20.856Z,2.10
2023-03-28T19:17:47.641Z,1.30
2023-03-28T19:20:15.499Z,2.10
2023-03-28T19:22:43.091Z,1.50
2023-03-28T19:25:09.958Z,1.70
2023-03-28T19:27:36.962Z,1.80
2023-03-28T19:30:04.273Z,1.67
2023-03-28T19:32:30.776Z,1.73
2023-03-28T19:34:57.296Z,2.40
2023-03-28T19:37:23.694Z,2.00
2023-03-28T19:39:50.048Z,1.90
2023-03-28T19:42:18.162Z,1.80
2023-03-28T19:44:44.550Z,1.70
2023-03-28T19:47:10.887Z,2.03
2023-03-28T19:49:38.140Z,1.40
2023-03-28T19:52:05.231Z,1.20
2023-03-28T19:54:31.635Z,1.10
2023-03-28T19:56:58.027Z,1.00
2023-03-28T19:59:24.563Z,1.10
2023-03-28T20:01:51.075Z,1.45
2023-03-28T20:04:20.772Z,1.63
2023-03-28T20:06:48.792Z,0.85
2023-03-28T20:09:15.499Z,1.08
2023-03-28T20:11:42.161Z,0.90
2023-03-28T20:14:09.097Z,1.40
2023-03-28T20:16:35.588Z,1.50
2023-03-28T20:19:03.666Z,1.50
2023-03-28T20:21:30.090Z,1.30
2023-03-28T20:23:58.539Z,1.40
2023-03-28T20:26:28.347Z,1.50
2023-03-28T20:28:56.781Z,1.38
2023-03-28T20:31:23.282Z,1.35
2023-03-28T20:33:51.989Z,1.52
2023-03-28T20:36:18.398Z,1.30
2023-03-28T20:38:44.911Z,1.27
2023-03-28T20:41:16.242Z,1.02
2023-03-28T20:43:47.112Z,0.90
2023-03-28T20:46:14.847Z,1.17
2023-03-28T20:48:42.025Z,1.00
2023-03-28T20:51:14.024Z,0.85
2023-03-28T20:56:07.238Z,1.08
2023-03-28T20:58:34.321Z,1.58
2023-03-28T21:01:01.841Z,0.90
2023-03-28T21:03:49.303Z,0.80
2023-03-28T21:06:16.640Z,0.80
2023-03-28T21:08:45.718Z,1.00
2023-03-28T21:11:13.393Z,1.05
2023-03-28T21:13:39.777Z,1.02
2023-03-28T21:16:06.522Z,1.25
2023-03-28T21:18:35.012Z,0.80
2023-03-28T21:21:01.541Z,0.80
2023-03-28T21:23:28.062Z,1.15
2023-03-28T21:25:54.390Z,1.08
2023-03-28T21:28:20.692Z,0.77
2023-03-28T21:30:57.624Z,1.15
2023-03-28T21:33:24.648Z,1.02
2023-03-28T21:35:51.758Z,1.10
2023-03-28T21:38:18.435Z,1.27
2023-03-28T21:40:45.997Z,1.08
2023-03-28T21:43:12.391Z,1.08
2023-03-28T21:45:38.843Z,1.00
2023-03-28T21:48:05.411Z,0.80
2023-03-28T21:50:31.824Z,1.30
2023-03-28T21:52:58.479Z,2.42
2023-03-28T21:55:25.230Z,1.77
2023-03-28T21:57:51.571Z,1.42
2023-03-28T22:00:18.045Z,1.45
2023-03-28T22:02:44.861Z,1.58
2023-03-28T22:05:26.172Z,1.50
2023-03-28T22:07:55.824Z,1.27
2023-03-28T22:10:26.382Z,1.50
2023-03-28T22:12:53.303Z,1.30
2023-03-28T22:15:19.701Z,1.00
2023-03-28T22:17:46.102Z,1.10
2023-03-28T22:20:13.045Z,1.00
2023-03-28T22:22:42.543Z,0.88
2023-03-28T22:25:12.674Z,0.85
2023-03-28T22:27:39.501Z,0.90
2023-03-28T22:30:06.901Z,0.95
2023-03-28T22:32:34.268Z,0.88
2023-03-28T22:35:00.576Z,0.80
2023-03-28T22:37:27.090Z,0.85
2023-03-28T22:39:53.422Z,1.00
2023-03-28T22:42:19.781Z,1.20
2023-03-28T22:44:46.660Z,1.00
2023-03-28T22:47:12.971Z,0.90
2023-03-28T22:49:39.748Z,0.93
2023-03-28T22:52:06.348Z,0.90
2023-03-28T22:54:33.483Z,0.82
2023-03-28T22:57:00.530Z,1.00
2023-03-28T22:59:27.214Z,1.00
2023-03-28T23:01:54.677Z,1.20
2023-03-28T23:04:21.284Z,0.80
2023-03-28T23:06:50.316Z,1.17
2023-03-28T23:09:17.498Z,0.90
2023-03-28T23:11:44.144Z,0.77
2023-03-28T23:14:10.776Z,1.13
2023-03-28T23:16:38.428Z,1.23
2023-03-28T23:19:06.308Z,1.63
2023-03-28T23:21:33.654Z,1.60
2023-03-28T23:24:01.025Z,1.48
2023-03-28T23:26:27.493Z,1.00
2023-03-28T23:28:53.881Z,0.88
2023-03-28T23:31:20.353Z,1.00
2023-03-28T23:33:46.987Z,0.70
2023-03-28T23:36:14.249Z,0.52
2023-03-28T23:38:41.050Z,0.60
2023-03-28T23:41:07.941Z,1.20
2023-03-28T23:43:34.421Z,1.30
2023-03-28T23:46:04.377Z,1.20
2023-03-28T23:48:31.148Z,1.13
2023-03-28T23:50:58.181Z,1.10
2023-03-28T23:53:24.711Z,1.40
2023-03-28T23:55:51.758Z,1.42
2023-03-28T23:58:18.061Z,1.42
